Time;durP1;ratioP1;P1;durP2;ratioP2;P2;SDS_P1;SDS_P2;PMS_P1;PMS_P2;Temp;Humidity;BMP_temperature;BMP_pressure;BME280_temperature;BME280_humidity;BME280_pressure;Samples;Min_cycle;Max_cycle;Signal;HPM_P1;HPM_P2
2021/09/20 00:00:17;;;;;;;6.55;2.92;;;14.20;90.40;;;;;;5052497;28;20024;-67
2021/09/20 00:02:44;;;;;;;3.63;2.50;;;14.20;90.40;;;;;;5053724;28;20029;-67
2021/09/20 00:05:09;;;;;;;3.78;2.40;;;14.10;90.50;;;;;;5032756;28;20107;-67
2021/09/20 00:07:37;;;;;;;7.22;3.00;;;14.10;90.60;;;;;;5032447;28;20064;-67
2021/09/20 00:10:05;;;;;;;5.90;2.63;;;14.00;90.60;;;;;;5050179;28;20029;-67
2021/09/20 00:12:31;;;;;;;3.17;2.30;;;14.00;90.50;;;;;;5025560;28;20037;-67
2021/09/20 00:14:56;;;;;;;4.35;2.75;;;14.00;90.40;;;;;;5033671;28;20025;-67
2021/09/20 00:17:22;;;;;;;3.53;2.20;;;14.00;90.30;;;;;;5041594;28;20087;-67
2021/09/20 00:19:47;;;;;;;3.97;1.92;;;14.10;90.40;;;;;;5051140;28;20036;-67
2021/09/20 00:22:13;;;;;;;3.50;2.30;;;14.00;90.40;;;;;;5040775;28;20565;-67
2021/09/20 00:24:38;;;;;;;6.45;2.67;;;14.10;90.40;;;;;;5032668;28;20030;-67
2021/09/20 00:27:06;;;;;;;4.10;2.63;;;14.10;90.40;;;;;;5032906;28;20018;-68
2021/09/20 00:29:32;;;;;;;5.85;2.80;;;14.10;89.70;;;;;;5032128;28;20029;-68
2021/09/20 00:31:58;;;;;;;3.90;2.08;;;14.00;89.70;;;;;;5032136;28;20029;-68
2021/09/20 00:34:23;;;;;;;5.35;3.00;;;14.00;89.40;;;;;;5031922;28;20022;-68
2021/09/20 00:36:49;;;;;;;4.80;2.15;;;14.00;89.50;;;;;;5032170;28;20040;-68
2021/09/20 00:39:14;;;;;;;3.42;2.30;;;14.00;89.40;;;;;;5031977;28;20080;-68
2021/09/20 00:41:40;;;;;;;7.15;3.63;;;14.00;89.30;;;;;;5033326;28;20025;-68
2021/09/20 00:44:06;;;;;;;3.72;2.00;;;14.10;89.10;;;;;;5031383;28;20025;-68
2021/09/20 00:46:31;;;;;;;4.13;2.40;;;14.00;88.80;;;;;;5032124;28;20513;-68
2021/09/20 00:48:57;;;;;;;3.85;2.08;;;14.00;88.90;;;;;;5025413;28;20045;-68
2021/09/20 00:51:22;;;;;;;4.15;1.77;;;14.00;88.80;;;;;;5032137;28;20090;-68
2021/09/20 00:53:48;;;;;;;5.25;2.05;;;14.00;88.50;;;;;;5030763;28;20021;-68
2021/09/20 00:56:13;;;;;;;4.20;2.22;;;14.00;88.30;;;;;;5032044;28;20072;-68
2021/09/20 00:58:40;;;;;;;4.10;2.20;;;14.00;88.30;;;;;;5032113;28;20030;-68
2021/09/20 01:01:05;;;;;;;4.85;2.45;;;14.00;88.80;;;;;;5031857;28;20025;-67
2021/09/20 01:03:31;;;;;;;3.95;2.15;;;13.90;89.50;;;;;;5031838;28;20033;-68
2021/09/20 01:05:58;;;;;;;4.30;2.20;;;13.90;89.80;;;;;;5030777;28;20025;-68
2021/09/20 01:08:24;;;;;;;4.85;2.67;;;13.90;90.00;;;;;;5031861;28;20022;-67
2021/09/20 01:10:50;;;;;;;5.20;2.42;;;13.80;90.20;;;;;;5044203;28;20110;-68
2021/09/20 01:13:15;;;;;;;6.75;2.60;;;13.80;90.30;;;;;;5050361;28;20524;-68
2021/09/20 01:15:41;;;;;;;5.07;2.50;;;13.80;90.40;;;;;;5026652;28;20037;-68
2021/09/20 01:18:06;;;;;;;4.07;2.28;;;13.80;90.50;;;;;;5012714;28;20119;-67
2021/09/20 01:20:32;;;;;;;5.35;2.50;;;13.70;90.50;;;;;;5031613;28;20029;-67
2021/09/20 01:23:02;;;;;;;4.55;2.88;;;13.80;90.60;;;;;;5032799;28;20485;-67
2021/09/20 01:25:29;;;;;;;6.10;2.67;;;13.80;90.70;;;;;;5030648;28;20033;-68
2021/09/20 01:27:55;;;;;;;4.80;2.95;;;13.80;90.70;;;;;;5032287;28;20025;-67
2021/09/20 01:30:20;;;;;;;4.50;2.35;;;13.70;90.80;;;;;;5029851;28;20079;-67
2021/09/20 01:32:46;;;;;;;4.82;2.28;;;13.80;90.80;;;;;;5031351;28;20099;-67
2021/09/20 01:35:13;;;;;;;3.42;2.35;;;13.70;90.80;;;;;;5025094;28;20033;-67
2021/09/20 01:37:39;;;;;;;3.92;2.35;;;13.70;90.90;;;;;;5030341;28;20048;-67
2021/09/20 01:40:05;;;;;;;4.13;2.40;;;13.70;91.00;;;;;;5030295;28;20033;-67
2021/09/20 01:42:31;;;;;;;4.68;2.38;;;13.70;91.00;;;;;;5032073;28;20037;-66
2021/09/20 01:44:56;;;;;;;4.13;2.67;;;13.70;91.10;;;;;;5040042;28;20014;-68
2021/09/20 01:47:22;;;;;;;3.47;1.92;;;13.80;91.20;;;;;;5052265;28;20029;-67
2021/09/20 01:49:47;;;;;;;4.50;2.42;;;13.70;91.20;;;;;;5047625;28;20025;-68
2021/09/20 01:52:13;;;;;;;4.13;2.65;;;13.80;91.20;;;;;;5046261;28;20032;-67
2021/09/20 01:54:38;;;;;;;4.60;2.85;;;13.70;91.20;;;;;;5046189;28;20385;-66
2021/09/20 01:57:04;;;;;;;6.60;2.67;;;13.80;91.20;;;;;;5034948;28;20470;-67
2021/09/20 01:59:30;;;;;;;4.20;2.45;;;13.80;91.20;;;;;;5031247;28;20052;-67
2021/09/20 02:01:56;;;;;;;5.93;3.58;;;13.80;91.20;;;;;;5029699;28;20025;-68
2021/09/20 02:04:21;;;;;;;4.78;2.85;;;13.80;91.20;;;;;;5045022;28;20025;-67
2021/09/20 02:06:47;;;;;;;5.57;2.78;;;13.80;91.20;;;;;;5039605;28;20363;-67
2021/09/20 02:09:13;;;;;;;3.58;2.38;;;13.70;91.30;;;;;;5030621;28;20071;-68
2021/09/20 02:11:39;;;;;;;4.57;2.78;;;13.70;91.40;;;;;;5028565;28;20168;-68
2021/09/20 02:14:04;;;;;;;5.55;2.50;;;13.70;91.40;;;;;;5033001;28;20037;-68
2021/09/20 02:16:30;;;;;;;7.10;2.63;;;13.70;91.50;;;;;;5031426;28;20072;-68
2021/09/20 02:18:55;;;;;;;4.43;2.65;;;13.70;91.50;;;;;;5013395;28;20037;-68
2021/09/20 02:21:21;;;;;;;3.13;2.25;;;13.70;91.60;;;;;;5030406;28;20025;-68
2021/09/20 02:23:47;;;;;;;5.50;3.30;;;13.70;91.60;;;;;;5031032;28;20414;-68
2021/09/20 02:26:12;;;;;;;3.92;2.53;;;13.70;91.80;;;;;;5029698;28;20044;-68
2021/09/20 02:28:38;;;;;;;5.15;3.17;;;13.70;91.80;;;;;;5030872;28;20079;-68
2021/09/20 02:31:05;;;;;;;4.30;2.90;;;13.60;91.90;;;;;;5030038;28;20390;-68
2021/09/20 02:33:32;;;;;;;4.40;2.50;;;13.70;92.00;;;;;;5030831;28;20028;-68
2021/09/20 02:35:57;;;;;;;3.53;2.25;;;13.70;92.00;;;;;;5030984;28;20068;-68
2021/09/20 02:38:23;;;;;;;4.13;2.28;;;13.70;92.00;;;;;;5030060;28;20061;-68
2021/09/20 02:40:48;;;;;;;5.53;2.88;;;13.70;92.00;;;;;;5028970;28;20060;-68
2021/09/20 02:43:14;;;;;;;4.15;2.58;;;13.70;92.10;;;;;;5031550;28;20034;-69
2021/09/20 02:45:40;;;;;;;5.30;3.10;;;13.80;92.10;;;;;;5027226;28;20033;-69
2021/09/20 02:48:05;;;;;;;3.72;2.67;;;13.80;92.20;;;;;;5031125;28;20469;-68
2021/09/20 02:50:31;;;;;;;7.15;3.00;;;13.70;92.20;;;;;;5030163;28;20032;-68
2021/09/20 02:52:56;;;;;;;4.25;2.45;;;13.70;92.30;;;;;;5030973;28;20022;-68
2021/09/20 02:55:22;;;;;;;3.45;2.55;;;13.70;92.30;;;;;;5028909;28;20410;-69
2021/09/20 02:57:47;;;;;;;4.72;2.65;;;13.70;92.40;;;;;;5030199;28;20045;-69
2021/09/20 03:00:13;;;;;;;5.35;3.20;;;13.70;92.40;;;;;;5032471;28;20179;-69
2021/09/20 03:02:39;;;;;;;4.85;3.10;;;13.70;92.50;;;;;;5038949;28;20033;-69
2021/09/20 03:05:06;;;;;;;4.30;2.47;;;13.70;92.50;;;;;;5037489;28;20389;-67
2021/09/20 03:07:31;;;;;;;5.93;2.70;;;13.70;92.50;;;;;;5031010;28;20060;-68
2021/09/20 03:09:57;;;;;;;5.65;2.80;;;13.70;92.50;;;;;;5033653;28;20029;-68
2021/09/20 03:12:22;;;;;;;5.95;2.70;;;13.70;92.60;;;;;;5031048;28;20470;-67
2021/09/20 03:14:48;;;;;;;5.68;2.95;;;13.70;92.80;;;;;;5028876;28;20059;-68
2021/09/20 03:17:14;;;;;;;4.88;2.50;;;13.70;92.50;;;;;;5030547;28;20052;-68
2021/09/20 03:19:40;;;;;;;4.28;2.38;;;13.70;92.50;;;;;;5029451;28;20501;-68
2021/09/20 03:22:05;;;;;;;4.30;2.60;;;13.70;92.50;;;;;;5030488;28;20026;-67
2021/09/20 03:24:31;;;;;;;3.70;2.28;;;13.70;92.50;;;;;;5022553;28;20543;-69
2021/09/20 03:26:56;;;;;;;4.30;2.70;;;13.70;92.60;;;;;;5030585;28;20428;-68
2021/09/20 03:29:22;;;;;;;4.65;2.97;;;13.80;92.60;;;;;;5034110;28;20033;-68
2021/09/20 03:31:48;;;;;;;6.07;2.85;;;13.80;92.60;;;;;;5052030;28;20353;-68
2021/09/20 03:34:13;;;;;;;5.25;2.58;;;13.90;92.60;;;;;;5040996;28;20030;-68
2021/09/20 03:36:39;;;;;;;6.35;2.92;;;13.80;92.40;;;;;;5034383;28;20092;-67
2021/09/20 03:39:04;;;;;;;3.70;2.75;;;13.90;92.30;;;;;;5029855;28;20445;-67
2021/09/20 03:41:30;;;;;;;4.72;2.78;;;13.90;92.30;;;;;;5054303;28;20025;-67
2021/09/20 03:43:56;;;;;;;6.35;3.25;;;13.90;92.20;;;;;;5041900;28;20052;-67
2021/09/20 03:46:22;;;;;;;6.60;3.10;;;13.90;92.20;;;;;;5034276;28;20021;-67
2021/09/20 03:48:47;;;;;;;4.78;2.92;;;13.80;92.20;;;;;;5032157;28;20029;-67
2021/09/20 03:51:13;;;;;;;5.22;3.10;;;13.80;92.30;;;;;;5054123;28;20033;-67
2021/09/20 03:53:38;;;;;;;5.45;3.22;;;13.80;92.30;;;;;;5035522;28;20017;-68
2021/09/20 03:56:04;;;;;;;9.40;3.53;;;13.80;92.40;;;;;;5033274;28;20599;-67
2021/09/20 03:58:29;;;;;;;5.95;3.10;;;13.70;92.50;;;;;;5033523;28;20042;-67
2021/09/20 04:00:56;;;;;;;6.05;3.13;;;13.80;92.50;;;;;;5034986;28;20096;-67
2021/09/20 04:03:21;;;;;;;4.75;2.97;;;13.80;92.50;;;;;;5050422;28;20037;-67
2021/09/20 04:05:47;;;;;;;8.55;3.20;;;13.80;92.60;;;;;;5033109;28;20451;-67
2021/09/20 04:08:15;;;;;;;5.60;3.03;;;13.80;92.60;;;;;;5033008;28;20099;-67
2021/09/20 04:10:41;;;;;;;4.18;2.85;;;13.80;92.60;;;;;;5032875;28;20386;-67
2021/09/20 04:13:07;;;;;;;4.57;2.70;;;13.70;92.60;;;;;;5032679;28;20040;-66
2021/09/20 04:15:33;;;;;;;8.77;3.22;;;13.80;92.70;;;;;;5041137;28;20021;-67
2021/09/20 04:17:58;;;;;;;5.03;3.20;;;13.80;92.70;;;;;;5033564;28;20490;-68
2021/09/20 04:20:24;;;;;;;6.68;3.45;;;13.80;92.70;;;;;;5044590;28;20470;-68
2021/09/20 04:22:49;;;;;;;5.13;3.00;;;13.80;92.70;;;;;;5032859;28;20035;-68
2021/09/20 04:25:15;;;;;;;6.50;3.17;;;13.80;92.70;;;;;;5032838;28;20030;-68
2021/09/20 04:27:41;;;;;;;4.07;2.70;;;13.70;92.70;;;;;;5033436;28;20044;-68
2021/09/20 04:30:07;;;;;;;5.80;3.42;;;13.80;92.70;;;;;;5043063;28;20390;-68
2021/09/20 04:32:33;;;;;;;5.80;3.15;;;13.80;92.70;;;;;;5053075;28;20028;-69
2021/09/20 04:34:58;;;;;;;6.72;3.38;;;13.80;92.70;;;;;;5034519;28;20473;-68
2021/09/20 04:37:24;;;;;;;7.68;3.08;;;13.80;92.80;;;;;;5032609;28;20044;-68
2021/09/20 04:39:49;;;;;;;4.97;3.03;;;13.90;92.80;;;;;;5030586;28;20516;-68
2021/09/20 04:42:15;;;;;;;5.32;2.97;;;13.80;92.70;;;;;;5033091;28;20025;-68
2021/09/20 04:44:41;;;;;;;6.55;3.28;;;13.80;92.70;;;;;;5031673;28;20033;-68
2021/09/20 04:47:06;;;;;;;4.40;2.88;;;13.80;92.70;;;;;;5031621;28;20025;-67
2021/09/20 04:49:32;;;;;;;5.15;3.00;;;13.80;92.70;;;;;;5034694;28;20405;-68
2021/09/20 04:51:57;;;;;;;4.75;2.90;;;13.80;92.70;;;;;;5032624;28;20485;-68
2021/09/20 04:54:23;;;;;;;5.53;3.30;;;13.80;92.70;;;;;;5036883;28;20037;-66
2021/09/20 04:56:48;;;;;;;5.43;2.83;;;13.80;92.70;;;;;;5035889;28;20126;-66
2021/09/20 04:59:14;;;;;;;4.68;2.70;;;13.80;92.80;;;;;;5046270;28;20037;-67
2021/09/20 05:01:39;;;;;;;3.97;2.60;;;13.80;92.70;;;;;;5031758;28;20025;-66
2021/09/20 05:04:05;;;;;;;4.65;2.97;;;13.80;92.80;;;;;;5034068;28;20108;-67
2021/09/20 05:06:30;;;;;;;4.53;2.67;;;13.80;92.80;;;;;;5039545;28;20036;-67
2021/09/20 05:08:56;;;;;;;4.10;2.80;;;13.80;92.80;;;;;;5030344;28;20040;-67
2021/09/20 05:11:22;;;;;;;5.78;3.10;;;13.80;92.80;;;;;;5031353;28;20160;-67
2021/09/20 05:13:47;;;;;;;7.50;3.63;;;13.80;92.90;;;;;;5030188;28;20029;-67
2021/09/20 05:16:13;;;;;;;5.15;2.78;;;13.80;92.90;;;;;;5050763;28;20036;-67
2021/09/20 05:18:38;;;;;;;6.32;3.15;;;13.80;92.90;;;;;;5028303;28;20051;-68
2021/09/20 05:21:04;;;;;;;4.18;2.67;;;13.80;93.00;;;;;;5032293;28;20021;-67
2021/09/20 05:23:29;;;;;;;5.95;2.75;;;13.80;93.00;;;;;;5032351;28;20037;-67
2021/09/20 05:25:55;;;;;;;7.40;2.85;;;13.80;93.10;;;;;;5049017;28;20120;-68
2021/09/20 05:28:21;;;;;;;5.55;2.65;;;13.80;93.10;;;;;;5041940;28;20389;-67
2021/09/20 05:30:46;;;;;;;6.55;3.00;;;13.80;93.10;;;;;;5031827;28;20099;-67
2021/09/20 05:33:14;;;;;;;7.60;3.00;;;13.80;93.20;;;;;;5032130;28;20030;-67
2021/09/20 05:35:40;;;;;;;4.88;2.90;;;13.90;93.20;;;;;;5046850;28;20033;-67
2021/09/20 05:38:05;;;;;;;4.18;2.67;;;13.90;93.40;;;;;;5034283;28;20037;-68
2021/09/20 05:40:33;;;;;;;7.28;2.90;;;13.90;93.20;;;;;;5031343;28;20029;-69
2021/09/20 05:42:59;;;;;;;5.53;2.92;;;13.80;93.30;;;;;;5031234;28;20033;-67
2021/09/20 05:45:25;;;;;;;5.22;2.90;;;13.90;93.30;;;;;;5044744;28;20040;-67
2021/09/20 05:47:51;;;;;;;4.63;2.55;;;13.90;93.30;;;;;;5037158;28;20075;-67
2021/09/20 05:50:19;;;;;;;5.00;2.90;;;13.90;93.30;;;;;;5030874;28;20087;-67
2021/09/20 05:52:45;;;;;;;5.22;2.97;;;13.90;93.30;;;;;;5038971;28;20041;-67
2021/09/20 05:55:12;;;;;;;8.45;3.40;;;13.90;93.30;;;;;;5032498;28;20099;-67
2021/09/20 05:57:38;;;;;;;6.22;3.42;;;13.90;93.30;;;;;;5031072;28;20037;-67
2021/09/20 06:00:04;;;;;;;4.38;2.88;;;13.90;93.30;;;;;;5030465;28;20027;-67
2021/09/20 06:02:30;;;;;;;4.50;2.83;;;14.00;93.30;;;;;;5020865;28;20029;-67
2021/09/20 06:04:55;;;;;;;5.25;2.70;;;14.00;93.40;;;;;;5025642;28;20493;-67
2021/09/20 06:07:21;;;;;;;10.07;3.63;;;14.10;93.40;;;;;;5030989;28;20048;-66
2021/09/20 06:09:47;;;;;;;4.93;3.20;;;14.10;93.40;;;;;;5030373;28;20514;-66
2021/09/20 06:12:13;;;;;;;8.57;3.17;;;14.10;93.40;;;;;;5020344;28;20124;-66
2021/09/20 06:14:38;;;;;;;4.70;2.80;;;14.10;93.30;;;;;;5029053;28;20025;-66
2021/09/20 06:17:04;;;;;;;6.85;3.00;;;14.10;93.30;;;;;;5036503;28;20124;-67
2021/09/20 06:19:29;;;;;;;8.13;3.47;;;14.10;93.40;;;;;;5028248;28;20033;-66
2021/09/20 06:21:55;;;;;;;4.95;2.75;;;14.10;93.20;;;;;;5028419;28;20025;-66
2021/09/20 06:24:20;;;;;;;6.57;3.28;;;14.20;93.20;;;;;;5033412;28;20033;-66
2021/09/20 06:26:46;;;;;;;6.97;3.28;;;14.20;93.20;;;;;;5036784;28;20023;-66
2021/09/20 06:29:11;;;;;;;8.45;3.20;;;14.30;93.40;;;;;;5029090;28;20132;-66
2021/09/20 06:31:38;;;;;;;5.93;3.13;;;14.30;93.40;;;;;;5030732;28;20029;-67
2021/09/20 06:34:04;;;;;;;4.93;3.10;;;14.30;93.40;;;;;;5032436;28;20127;-65
2021/09/20 06:36:30;;;;;;;7.45;4.13;;;14.40;93.20;;;;;;5040434;28;20049;-66
2021/09/20 06:38:56;;;;;;;6.80;2.90;;;14.40;93.00;;;;;;5030226;28;20120;-66
2021/09/20 06:41:23;;;;;;;5.00;2.90;;;14.40;92.90;;;;;;5028368;28;20033;-66
2021/09/20 06:43:49;;;;;;;4.80;3.20;;;14.50;92.90;;;;;;5029535;28;20075;-67
2021/09/20 06:46:14;;;;;;;6.70;3.40;;;14.50;92.80;;;;;;5025241;28;20474;-65
2021/09/20 06:48:40;;;;;;;4.43;2.72;;;14.50;92.90;;;;;;5033863;28;20025;-64
2021/09/20 06:51:06;;;;;;;6.57;3.38;;;14.60;92.80;;;;;;5032292;28;20025;-67
2021/09/20 06:53:32;;;;;;;5.18;3.80;;;14.60;92.80;;;;;;5035519;28;20561;-66
2021/09/20 06:55:57;;;;;;;6.57;2.92;;;14.60;92.80;;;;;;5036657;28;20092;-65
2021/09/20 06:58:23;;;;;;;7.97;2.92;;;14.70;92.70;;;;;;5028911;28;20132;-66
2021/09/20 07:00:48;;;;;;;9.05;3.15;;;14.80;92.60;;;;;;5029815;28;20444;-66
2021/09/20 07:03:14;;;;;;;7.20;3.42;;;14.80;92.40;;;;;;5036399;28;20397;-65
2021/09/20 07:05:40;;;;;;;5.25;2.90;;;14.80;92.20;;;;;;5027059;28;20382;-67
2021/09/20 07:08:06;;;;;;;5.22;2.80;;;14.80;92.10;;;;;;5030595;28;20734;-66
2021/09/20 07:10:32;;;;;;;7.40;2.90;;;14.80;92.10;;;;;;5034112;28;20097;-66
2021/09/20 07:12:57;;;;;;;4.13;2.50;;;14.90;92.10;;;;;;5038358;28;20029;-66
2021/09/20 07:15:23;;;;;;;5.43;2.88;;;14.90;92.10;;;;;;5036362;28;20376;-66
2021/09/20 07:17:48;;;;;;;5.93;2.75;;;14.90;92.00;;;;;;5036285;28;20041;-67
2021/09/20 07:20:14;;;;;;;6.32;3.03;;;15.00;91.90;;;;;;5041734;28;20040;-66
2021/09/20 07:22:40;;;;;;;6.28;2.78;;;15.00;92.10;;;;;;5040832;28;20037;-68
2021/09/20 07:25:06;;;;;;;12.65;4.15;;;15.10;91.90;;;;;;5048199;28;20053;-67
2021/09/20 07:27:32;;;;;;;6.45;2.92;;;15.20;91.80;;;;;;5042856;28;20075;-67
2021/09/20 07:29:57;;;;;;;5.38;3.00;;;15.20;91.80;;;;;;5052431;28;20017;-67
2021/09/20 07:32:23;;;;;;;5.50;3.50;;;15.30;92.00;;;;;;5041178;28;20025;-68
2021/09/20 07:34:48;;;;;;;4.05;2.72;;;15.40;91.50;;;;;;5034549;28;20481;-68
2021/09/20 07:37:15;;;;;;;14.15;3.63;;;15.50;91.70;;;;;;5047879;28;20134;-68
2021/09/20 07:39:41;;;;;;;9.32;3.20;;;15.50;91.40;;;;;;5050189;28;20037;-67
2021/09/20 07:42:08;;;;;;;4.57;3.15;;;15.60;91.20;;;;;;5039884;28;20033;-67
2021/09/20 07:44:34;;;;;;;4.28;2.70;;;15.60;91.00;;;;;;5034201;28;20064;-67
2021/09/20 07:47:00;;;;;;;4.38;2.95;;;15.70;90.80;;;;;;5031008;28;20498;-66
2021/09/20 07:49:26;;;;;;;6.05;3.03;;;15.70;90.80;;;;;;5036978;28;20120;-66
2021/09/20 07:51:52;;;;;;;4.45;2.55;;;15.80;90.70;;;;;;5046336;28;20473;-65
2021/09/20 07:54:17;;;;;;;6.40;3.17;;;15.80;90.60;;;;;;5034226;28;20513;-66
2021/09/20 07:56:43;;;;;;;6.20;2.92;;;15.80;90.60;;;;;;5034686;28;20049;-65
2021/09/20 07:59:08;;;;;;;6.60;2.45;;;15.80;90.40;;;;;;5034492;28;20029;-67
2021/09/20 08:01:34;;;;;;;7.18;3.20;;;15.80;90.40;;;;;;5042244;28;20051;-66
2021/09/20 08:04:00;;;;;;;4.53;2.45;;;15.80;90.20;;;;;;5044719;28;20025;-66
2021/09/20 08:06:28;;;;;;;5.25;2.88;;;15.90;90.30;;;;;;5042736;28;20040;-66
2021/09/20 08:08:54;;;;;;;6.65;3.00;;;16.00;90.40;;;;;;5038553;28;20406;-66
2021/09/20 08:11:20;;;;;;;4.32;2.63;;;16.00;90.30;;;;;;5042786;28;20065;-66
2021/09/20 08:13:46;;;;;;;5.32;2.97;;;16.10;90.50;;;;;;5034977;28;20066;-67
2021/09/20 08:16:11;;;;;;;3.95;2.38;;;16.10;90.40;;;;;;5038931;28;22595;-67
2021/09/20 08:18:37;;;;;;;6.85;2.67;;;16.20;90.40;;;;;;5028683;28;20037;-66
2021/09/20 08:21:03;;;;;;;6.75;3.17;;;16.20;90.20;;;;;;5034411;28;20044;-66
2021/09/20 08:23:29;;;;;;;5.63;2.90;;;16.30;89.80;;;;;;5028638;28;20030;-66
2021/09/20 08:25:55;;;;;;;4.63;2.67;;;16.30;89.50;;;;;;5036002;28;20086;-66
2021/09/20 08:28:21;;;;;;;7.97;3.90;;;16.40;89.20;;;;;;5037975;28;20041;-67
2021/09/20 08:30:47;;;;;;;7.40;2.97;;;16.40;89.10;;;;;;5039810;28;20045;-66
2021/09/20 08:33:13;;;;;;;4.25;2.35;;;16.50;88.80;;;;;;5031392;28;20057;-66
2021/09/20 08:35:38;;;;;;;4.97;2.72;;;16.50;87.30;;;;;;5033971;28;20021;-66
2021/09/20 08:38:04;;;;;;;6.07;2.80;;;16.60;87.90;;;;;;5031889;28;20033;-66
2021/09/20 08:40:31;;;;;;;5.68;2.42;;;16.60;87.40;;;;;;5040987;28;20148;-66
2021/09/20 08:42:57;;;;;;;5.50;2.70;;;16.70;87.70;;;;;;5034729;28;20167;-67
2021/09/20 08:45:24;;;;;;;3.85;2.50;;;16.80;87.50;;;;;;5030770;28;20022;-67
2021/09/20 08:47:51;;;;;;;3.75;2.22;;;16.80;86.20;;;;;;5022435;28;20037;-67
2021/09/20 08:50:24;;;;;;;5.00;2.42;;;16.80;84.70;;;;;;5030165;28;20021;-67
2021/09/20 08:52:50;;;;;;;3.30;2.25;;;16.80;83.70;;;;;;5039140;28;20036;-66
2021/09/20 08:55:16;;;;;;;4.03;2.30;;;16.80;82.80;;;;;;5051841;28;20041;-66
2021/09/20 08:57:42;;;;;;;5.43;2.60;;;16.80;83.90;;;;;;5052217;28;20668;-66
2021/09/20 09:00:09;;;;;;;6.45;2.72;;;16.80;83.50;;;;;;5053221;28;20104;-66
2021/09/20 09:02:35;;;;;;;5.65;2.70;;;16.80;83.40;;;;;;5052303;28;20112;-66
2021/09/20 09:05:19;;;;;;;3.97;2.50;;;16.80;83.30;;;;;;5034487;28;20030;-66
2021/09/20 09:07:48;;;;;;;4.80;2.47;;;16.80;83.30;;;;;;5032858;28;20159;-66
2021/09/20 09:10:14;;;;;;;6.43;2.58;;;16.90;83.20;;;;;;5031906;28;20044;-66
2021/09/20 09:12:40;;;;;;;4.35;2.20;;;16.90;82.70;;;;;;5032957;28;20037;-66
2021/09/20 09:15:10;;;;;;;4.05;2.47;;;16.80;81.40;;;;;;5030713;28;20029;-67
2021/09/20 09:17:42;;;;;;;4.93;2.35;;;16.80;81.20;;;;;;5028189;28;20049;-66
2021/09/20 09:20:14;;;;;;;4.63;2.75;;;16.70;81.90;;;;;;5032234;28;20029;-67
2021/09/20 09:22:45;;;;;;;4.05;2.20;;;16.70;81.50;;;;;;5025163;28;20025;-67
2021/09/20 09:25:14;;;;;;;5.63;2.33;;;16.70;81.50;;;;;;5029739;28;20025;-67
2021/09/20 09:27:40;;;;;;;4.68;2.30;;;16.60;81.70;;;;;;5032821;28;20040;-66
2021/09/20 09:30:12;;;;;;;9.40;3.13;;;16.60;81.40;;;;;;5030393;28;20107;-67
2021/09/20 09:32:39;;;;;;;4.47;2.55;;;16.50;79.70;;;;;;5032407;28;20025;-67
2021/09/20 09:35:07;;;;;;;4.20;2.30;;;16.50;81.60;;;;;;5031591;28;20048;-67
2021/09/20 09:37:37;;;;;;;5.30;3.05;;;16.60;82.00;;;;;;5025044;28;20029;-67
2021/09/20 09:40:22;;;;;;;5.78;3.22;;;16.60;81.70;;;;;;5036413;28;20036;-67
2021/09/20 09:42:51;;;;;;;5.80;2.30;;;16.60;81.60;;;;;;5032183;28;20037;-67
2021/09/20 09:45:25;;;;;;;5.78;2.38;;;16.60;81.60;;;;;;5030952;28;20041;-67
2021/09/20 09:48:04;;;;;;;5.03;2.40;;;16.70;80.90;;;;;;5029497;28;20522;-68
2021/09/20 09:50:30;;;;;;;5.13;2.60;;;16.80;81.20;;;;;;5030446;28;20128;-66
2021/09/20 09:52:56;;;;;;;5.50;2.63;;;16.80;81.60;;;;;;5035412;28;20105;-67
2021/09/20 09:55:24;;;;;;;4.15;2.20;;;16.90;81.90;;;;;;5032982;28;20136;-66
2021/09/20 09:57:50;;;;;;;3.60;2.40;;;17.10;81.60;;;;;;5029237;28;20064;-66
2021/09/20 10:00:19;;;;;;;6.82;2.75;;;17.20;82.00;;;;;;5033722;28;20029;-66
2021/09/20 10:02:47;;;;;;;4.53;2.60;;;17.40;82.50;;;;;;5031964;28;20026;-67
2021/09/20 10:05:23;;;;;;;6.95;3.08;;;17.40;81.20;;;;;;5031179;28;20128;-67
2021/09/20 10:07:51;;;;;;;4.32;2.50;;;17.40;80.70;;;;;;5030595;28;20029;-68
2021/09/20 10:10:26;;;;;;;3.85;2.30;;;17.40;81.50;;;;;;5030548;28;20191;-67
2021/09/20 10:12:54;;;;;;;5.10;2.67;;;17.40;81.30;;;;;;5030302;28;20037;-67
2021/09/20 10:15:22;;;;;;;5.40;2.47;;;17.40;79.70;;;;;;5031686;28;20021;-67
2021/09/20 10:17:49;;;;;;;4.80;2.63;;;17.40;80.90;;;;;;5029804;28;20518;-67
2021/09/20 10:20:21;;;;;;;5.40;2.60;;;17.30;80.60;;;;;;5031753;28;20033;-67
2021/09/20 10:22:47;;;;;;;4.82;2.72;;;17.30;80.60;;;;;;5030514;28;20068;-67
2021/09/20 10:25:16;;;;;;;6.03;2.30;;;17.30;80.60;;;;;;5031698;28;20029;-67
2021/09/20 10:27:42;;;;;;;4.55;2.45;;;17.30;80.20;;;;;;5030393;28;20044;-67
2021/09/20 10:30:23;;;;;;;5.80;2.75;;;17.30;80.10;;;;;;5031790;28;20028;-68
2021/09/20 10:32:51;;;;;;;4.63;2.45;;;17.30;79.80;;;;;;5030253;28;20134;-67
2021/09/20 10:35:54;;;;;;;3.85;2.72;;;17.20;79.30;;;;;;5030212;28;20442;-67
2021/09/20 10:38:29;;;;;;;5.18;2.60;;;17.20;79.60;;;;;;5030149;28;20394;-67
2021/09/20 10:41:11;;;;;;;5.78;2.92;;;17.10;79.00;;;;;;5030773;28;20026;-66
2021/09/20 10:43:42;;;;;;;4.88;2.65;;;17.10;78.70;;;;;;5035645;28;20112;-66
2021/09/20 10:46:23;;;;;;;4.45;2.70;;;17.00;78.90;;;;;;5034554;28;20053;-66
2021/09/20 10:48:53;;;;;;;3.55;2.50;;;16.90;78.70;;;;;;5034748;28;20163;-66
2021/09/20 10:51:22;;;;;;;5.03;2.53;;;17.00;79.20;;;;;;5035204;28;20025;-66
2021/09/20 10:53:48;;;;;;;4.78;2.22;;;17.00;79.20;;;;;;5033706;28;20027;-66
2021/09/20 10:56:21;;;;;;;5.63;3.28;;;16.90;79.10;;;;;;5035075;28;20080;-66
2021/09/20 10:58:52;;;;;;;4.28;2.60;;;16.80;79.30;;;;;;5030493;28;20041;-66
2021/09/20 11:01:19;;;;;;;4.80;2.25;;;16.80;79.60;;;;;;5034684;28;20036;-65
2021/09/20 11:03:50;;;;;;;6.38;3.17;;;16.80;79.70;;;;;;5019617;28;20045;-66
2021/09/20 11:06:20;;;;;;;5.85;2.97;;;16.80;79.80;;;;;;5015530;28;20052;-67
2021/09/20 11:08:58;;;;;;;4.60;2.88;;;16.80;80.30;;;;;;5027424;28;20380;-67
2021/09/20 11:11:39;;;;;;;4.32;2.95;;;16.90;79.50;;;;;;5034979;28;20033;-66
2021/09/20 11:14:21;;;;;;;8.82;4.00;;;16.90;79.40;;;;;;5030007;28;20420;-66
2021/09/20 11:16:47;;;;;;;3.67;2.47;;;16.90;79.10;;;;;;5037540;28;20480;-67
2021/09/20 11:19:28;;;;;;;4.88;2.40;;;16.90;79.00;;;;;;5037971;28;20426;-66
2021/09/20 11:22:06;;;;;;;4.47;2.78;;;17.00;79.10;;;;;;5039196;28;20079;-66
2021/09/20 11:24:50;;;;;;;3.67;2.47;;;17.00;79.20;;;;;;5046279;28;20363;-66
2021/09/20 11:27:28;;;;;;;4.30;2.35;;;17.10;79.20;;;;;;5032046;28;20040;-66
2021/09/20 11:29:57;;;;;;;3.80;2.45;;;17.10;78.90;;;;;;5034261;28;20355;-66
2021/09/20 11:32:22;;;;;;;4.55;3.00;;;17.10;78.80;;;;;;5049763;28;20039;-66
2021/09/20 11:34:55;;;;;;;4.78;2.75;;;17.10;78.40;;;;;;5044546;28;20025;-66
2021/09/20 11:37:23;;;;;;;7.70;2.90;;;17.20;78.60;;;;;;5041654;28;20524;-65
2021/09/20 11:40:05;;;;;;;5.13;2.80;;;17.10;78.30;;;;;;5031922;28;20533;-66
2021/09/20 11:42:36;;;;;;;7.53;3.22;;;17.10;78.80;;;;;;5038399;28;20409;-66
2021/09/20 11:45:08;;;;;;;5.85;3.05;;;17.10;78.90;;;;;;5033610;28;20032;-67
2021/09/20 11:47:40;;;;;;;5.70;3.55;;;17.20;79.70;;;;;;5034309;28;20701;-66
2021/09/20 11:50:13;;;;;;;5.95;2.90;;;17.30;79.40;;;;;;5032777;28;20033;-66
2021/09/20 11:52:43;;;;;;;5.03;2.90;;;17.30;79.50;;;;;;5034437;28;20497;-67
2021/09/20 11:55:18;;;;;;;6.03;2.75;;;17.40;79.50;;;;;;5033062;28;20107;-67
2021/09/20 11:57:45;;;;;;;;;;;17.40;79.70;;;;;;5031146;28;20481;-67
2021/09/20 12:00:12;;;;;;;14.13;3.35;;;17.40;79.50;;;;;;5032494;28;19909;-66
2021/09/20 12:02:43;;;;;;;6.95;3.53;;;17.40;79.40;;;;;;5033993;28;20021;-67
2021/09/20 12:05:12;;;;;;;5.65;3.55;;;17.50;79.60;;;;;;5032647;28;20025;-66
2021/09/20 12:07:45;;;;;;;5.93;3.67;;;17.50;78.60;;;;;;5019089;28;20508;-67
2021/09/20 12:10:13;;;;;;;6.95;3.80;;;17.50;78.70;;;;;;5026508;28;20065;-66
2021/09/20 12:12:39;;;;;;;7.55;4.40;;;17.60;78.50;;;;;;5032234;28;20428;-66
2021/09/20 12:15:12;;;;;;;6.15;3.50;;;17.60;78.70;;;;;;5033987;28;20363;-66
2021/09/20 12:17:56;;;;;;;6.50;3.28;;;17.60;78.80;;;;;;5033032;28;20053;-66
2021/09/20 12:20:28;;;;;;;6.75;3.00;;;17.70;78.80;;;;;;5033827;28;20036;-66
2021/09/20 12:22:56;;;;;;;6.45;3.33;;;17.70;79.20;;;;;;5032603;28;20559;-66
2021/09/20 12:25:26;;;;;;;6.10;3.22;;;17.70;79.60;;;;;;5031389;28;20179;-66
2021/09/20 12:27:53;;;;;;;5.30;3.40;;;17.80;79.40;;;;;;5033077;28;20560;-67
2021/09/20 12:30:21;;;;;;;4.30;2.85;;;17.80;78.50;;;;;;5029427;28;20100;-66
2021/09/20 12:32:49;;;;;;;4.93;2.70;;;17.90;78.00;;;;;;5045559;28;20021;-66
2021/09/20 12:35:14;;;;;;;4.43;2.60;;;17.90;78.10;;;;;;5031675;28;22010;-68
2021/09/20 12:37:40;;;;;;;5.07;3.22;;;17.90;77.10;;;;;;5041346;28;20154;-66
2021/09/20 12:40:23;;;;;;;6.03;3.25;;;18.00;75.80;;;;;;5033247;28;20029;-66
2021/09/20 12:43:09;;;;;;;6.28;3.40;;;17.90;75.90;;;;;;5032008;28;20029;-66
2021/09/20 12:45:38;;;;;;;5.05;2.78;;;17.90;76.10;;;;;;5028720;28;20025;-66
2021/09/20 12:48:05;;;;;;;5.72;2.60;;;17.90;75.50;;;;;;5039208;28;20045;-66